createdAt,value
2018-06-02T00:59:02.085Z,16.80
2018-06-02T01:01:29.575Z,16.80
2018-06-02T01:03:57.062Z,16.80
2018-06-02T01:06:25.314Z,16.80
2018-06-02T01:08:52.828Z,16.70
2018-06-02T01:11:20.310Z,16.80
2018-06-02T01:13:47.802Z,16.70
2018-06-02T01:16:16.801Z,16.70
2018-06-02T01:18:45.059Z,16.70
2018-06-02T01:21:12.538Z,16.70
2018-06-02T01:23:40.790Z,16.70
2018-06-02T01:26:08.784Z,16.70
2018-06-02T01:28:36.269Z,16.70
2018-06-02T01:31:03.920Z,16.60
2018-06-02T01:33:31.767Z,16.70
2018-06-02T01:35:59.653Z,16.70
2018-06-02T01:38:27.331Z,16.70
2018-06-02T01:40:54.964Z,16.60
2018-06-02T01:43:22.450Z,16.50
2018-06-02T01:45:49.925Z,16.60
2018-06-02T01:48:17.931Z,16.50
2018-06-02T01:50:45.419Z,16.40
2018-06-02T01:53:12.910Z,16.40
2018-06-02T01:55:40.395Z,16.30
2018-06-02T01:58:07.892Z,16.30
2018-06-02T02:00:36.177Z,16.30
2018-06-02T02:03:03.829Z,16.30
2018-06-02T02:05:31.325Z,16.30
2018-06-02T02:07:58.809Z,16.30
2018-06-02T02:10:26.297Z,16.30
2018-06-02T02:12:54.057Z,16.30
2018-06-02T02:15:21.538Z,16.30
2018-06-02T02:17:49.040Z,16.20
2018-06-02T02:20:16.861Z,16.20
2018-06-02T02:22:44.357Z,16.20
2018-06-02T02:25:11.945Z,16.10
2018-06-02T02:27:40.017Z,16.10
2018-06-02T02:30:07.687Z,16.10
2018-06-02T02:32:35.475Z,16.00
2018-06-02T02:35:03.270Z,16.00
2018-06-02T02:37:30.802Z,15.90
2018-06-02T02:39:58.285Z,15.90
2018-06-02T02:42:25.888Z,15.80
2018-06-02T02:44:53.393Z,15.70
2018-06-02T02:47:20.907Z,15.70
2018-06-02T02:49:48.877Z,15.70
2018-06-02T02:52:16.753Z,15.60
2018-06-02T02:54:44.250Z,15.60
2018-06-02T02:57:11.986Z,15.50
2018-06-02T02:59:39.513Z,15.50
2018-06-02T03:02:07.004Z,15.40
2018-06-02T03:04:34.497Z,15.40
2018-06-02T03:07:01.977Z,15.40
2018-06-02T03:09:29.464Z,15.40
2018-06-02T03:11:56.955Z,15.30
2018-06-02T03:14:24.753Z,15.30
2018-06-02T03:16:52.646Z,15.20
2018-06-02T03:19:20.325Z,15.20
2018-06-02T03:21:47.813Z,15.20
2018-06-02T03:24:15.452Z,15.20
2018-06-02T03:26:42.995Z,15.20
2018-06-02T03:29:10.469Z,15.20
2018-06-02T03:31:38.022Z,15.10
2018-06-02T03:34:05.520Z,15.10
2018-06-02T03:36:33.273Z,15.10
2018-06-02T03:39:00.808Z,15.10
2018-06-02T03:41:28.299Z,15.10
2018-06-02T03:43:55.918Z,15.00
2018-06-02T03:46:23.414Z,15.00
2018-06-02T03:48:50.906Z,15.00
2018-06-02T03:51:19.153Z,15.00
2018-06-02T03:53:46.636Z,15.00
2018-06-02T03:56:14.896Z,15.10
2018-06-02T03:58:42.380Z,15.00
2018-06-02T04:01:09.870Z,15.10
2018-06-02T04:03:37.368Z,15.10
2018-06-02T04:06:05.616Z,15.10
2018-06-02T04:08:33.125Z,15.10
2018-06-02T04:11:00.987Z,15.10
2018-06-02T04:13:29.233Z,15.10
2018-06-02T04:15:57.654Z,15.20
2018-06-02T04:18:25.148Z,15.10
2018-06-02T04:20:52.966Z,15.20
2018-06-02T04:23:20.850Z,15.20
2018-06-02T04:25:48.354Z,15.20
2018-06-02T04:28:15.860Z,15.20
2018-06-02T04:30:43.435Z,15.20
2018-06-02T04:33:11.067Z,15.20
2018-06-02T04:35:40.784Z,15.20
2018-06-02T04:38:09.039Z,15.20
2018-06-02T04:40:36.518Z,15.20
2018-06-02T04:43:05.064Z,15.30
2018-06-02T04:45:34.064Z,15.20
2018-06-02T04:48:02.061Z,15.30
2018-06-02T04:50:29.561Z,15.30
2018-06-02T04:52:57.054Z,15.30
2018-06-02T04:55:24.536Z,15.40
2018-06-02T04:57:52.033Z,15.40
2018-06-02T05:00:19.958Z,15.50
2018-06-02T05:02:47.837Z,15.60
2018-06-02T05:05:15.316Z,15.70
2018-06-02T05:07:42.804Z,15.70
2018-06-02T05:10:10.319Z,15.80
2018-06-02T05:12:37.859Z,15.90
2018-06-02T05:15:05.545Z,16.00
2018-06-02T05:17:33.713Z,16.00
2018-06-02T05:20:01.349Z,16.00
2018-06-02T05:22:29.620Z,16.10
2018-06-02T05:24:57.930Z,16.20
2018-06-02T05:27:25.457Z,16.20
2018-06-02T05:29:52.942Z,16.40
2018-06-02T05:32:20.597Z,16.50
2018-06-02T05:34:48.081Z,16.70
2018-06-02T05:37:15.567Z,17.00
2018-06-02T05:39:43.186Z,17.20
2018-06-02T05:42:10.659Z,17.40
2018-06-02T05:44:38.485Z,17.60
2018-06-02T05:47:06.173Z,17.70
2018-06-02T05:49:33.804Z,17.70
2018-06-02T05:52:01.302Z,17.70
2018-06-02T05:54:28.921Z,17.70
2018-06-02T05:56:56.431Z,17.70
2018-06-02T05:59:23.924Z,17.70
2018-06-02T06:01:52.534Z,17.60
2018-06-02T06:04:20.045Z,17.60
2018-06-02T06:06:47.564Z,17.60
2018-06-02T06:09:15.058Z,17.80
2018-06-02T06:11:42.572Z,17.80
2018-06-02T06:14:10.076Z,17.90
2018-06-02T06:16:37.597Z,17.90
2018-06-02T06:19:05.534Z,18.10
2018-06-02T06:21:33.004Z,18.20
2018-06-02T06:24:02.413Z,18.30
2018-06-02T06:26:30.463Z,18.40
2018-06-02T06:28:58.798Z,19.50
2018-06-02T06:31:26.304Z,19.40
2018-06-02T06:33:53.792Z,19.60
2018-06-02T06:36:21.305Z,19.50
2018-06-02T06:38:49.554Z,19.10
2018-06-02T06:41:17.353Z,19.10
2018-06-02T06:43:45.024Z,19.00
2018-06-02T06:46:12.514Z,19.40
2018-06-02T06:48:39.995Z,20.30
2018-06-02T06:51:07.492Z,21.90
2018-06-02T06:53:34.981Z,23.50
2018-06-02T06:56:02.476Z,24.80
2018-06-02T06:58:29.944Z,25.70
2018-06-02T07:00:57.441Z,26.20
2018-06-02T07:03:24.957Z,26.70
2018-06-02T07:05:52.559Z,26.70
2018-06-02T07:08:20.418Z,27.10
2018-06-02T07:10:47.901Z,27.40
2018-06-02T07:13:15.732Z,28.10
2018-06-02T07:15:43.265Z,27.80
2018-06-02T07:18:10.840Z,27.90
2018-06-02T07:20:38.714Z,27.60
2018-06-02T07:23:07.084Z,26.90
2018-06-02T07:25:34.963Z,26.90
2018-06-02T07:28:02.666Z,26.40
2018-06-02T07:30:30.700Z,26.00
2018-06-02T07:32:58.337Z,26.50
2018-06-02T07:35:25.844Z,27.00
2018-06-02T07:37:53.381Z,27.80
2018-06-02T07:40:22.357Z,28.60
2018-06-02T07:42:50.687Z,27.60
2018-06-02T07:45:18.172Z,27.50
2018-06-02T07:47:46.288Z,27.00
2018-06-02T07:50:13.797Z,26.60
2018-06-02T07:52:41.278Z,25.90
2018-06-02T07:55:09.550Z,26.30
2018-06-02T07:57:37.868Z,26.50
2018-06-02T08:00:06.140Z,26.80
2018-06-02T08:02:33.799Z,26.80
2018-06-02T08:05:01.444Z,26.90
2018-06-02T08:07:28.935Z,26.30
2018-06-02T08:09:56.416Z,25.40
2018-06-02T08:12:24.855Z,24.10
2018-06-02T08:14:52.616Z,24.10
2018-06-02T08:17:20.787Z,24.10
2018-06-02T08:19:48.284Z,24.20
2018-06-02T08:22:15.804Z,24.60
2018-06-02T08:24:43.618Z,24.40
2018-06-02T08:27:12.103Z,23.70
2018-06-02T08:29:39.608Z,23.70
2018-06-02T08:32:07.265Z,23.80
2018-06-02T08:34:35.059Z,24.60
2018-06-02T08:37:02.549Z,25.00
2018-06-02T08:39:31.442Z,26.00
2018-06-02T08:41:58.928Z,25.90
2018-06-02T08:44:26.415Z,25.70
2018-06-02T08:46:54.060Z,25.70
2018-06-02T08:49:21.570Z,26.70
2018-06-02T08:51:49.178Z,27.80
2018-06-02T08:54:17.064Z,28.70
2018-06-02T08:56:44.901Z,29.40
2018-06-02T08:59:13.311Z,31.20
2018-06-02T09:01:40.800Z,31.10
2018-06-02T09:04:08.296Z,30.90
2018-06-02T09:06:35.871Z,29.30
2018-06-02T09:09:03.336Z,29.20
2018-06-02T09:11:30.931Z,29.70
2018-06-02T09:13:58.421Z,29.20
2018-06-02T09:16:26.056Z,28.50
2018-06-02T09:18:55.527Z,28.40
2018-06-02T09:21:23.401Z,28.40
2018-06-02T09:23:52.705Z,27.40
2018-06-02T09:26:20.680Z,26.80
2018-06-02T09:28:48.296Z,27.10
2018-06-02T09:31:15.794Z,28.10
2018-06-02T09:33:43.728Z,29.90
2018-06-02T09:36:11.259Z,30.90
2018-06-02T09:38:39.498Z,30.80
2018-06-02T09:41:08.467Z,30.80
2018-06-02T09:43:36.006Z,31.30
2018-06-02T09:46:04.264Z,30.90
2018-06-02T09:48:32.979Z,30.80
2018-06-02T09:51:00.481Z,31.20
2018-06-02T09:53:28.804Z,31.00
2018-06-02T09:55:56.310Z,30.10
2018-06-02T09:58:23.818Z,29.60
2018-06-02T10:00:51.337Z,29.20
2018-06-02T10:03:18.860Z,28.90
2018-06-02T10:05:48.082Z,29.20
2018-06-02T10:08:15.570Z,29.10
2018-06-02T10:10:43.068Z,30.10
2018-06-02T10:13:11.172Z,29.80
2018-06-02T10:15:38.731Z,29.20
2018-06-02T10:18:06.220Z,27.70
2018-06-02T10:20:34.007Z,26.80
2018-06-02T10:23:01.634Z,27.20
2018-06-02T10:25:29.171Z,27.00
2018-06-02T10:27:56.667Z,26.50
2018-06-02T10:30:24.147Z,25.90
2018-06-02T10:32:51.679Z,25.80
2018-06-02T10:35:19.614Z,26.60
2018-06-02T10:37:47.113Z,27.80
2018-06-02T10:40:14.612Z,28.80
2018-06-02T10:42:42.088Z,29.40
2018-06-02T10:45:10.627Z,29.70
2018-06-02T10:47:38.889Z,30.90
2018-06-02T10:50:06.394Z,30.90
2018-06-02T10:52:33.895Z,30.50
2018-06-02T10:55:01.450Z,30.70
2018-06-02T10:57:29.078Z,30.00
2018-06-02T10:59:56.578Z,28.90
2018-06-02T11:02:24.387Z,27.50
2018-06-02T11:04:51.886Z,26.60
2018-06-02T11:07:19.730Z,26.60
2018-06-02T11:09:47.410Z,26.60
2018-06-02T11:12:14.946Z,26.10
2018-06-02T11:14:42.439Z,25.60
2018-06-02T11:17:09.950Z,25.50
2018-06-02T11:19:38.299Z,26.40
2018-06-02T11:22:06.177Z,26.90
2018-06-02T11:24:33.771Z,27.00
2018-06-02T11:27:01.849Z,27.30
2018-06-02T11:29:29.395Z,27.70
2018-06-02T11:31:56.897Z,27.70
2018-06-02T11:34:25.575Z,26.80
2018-06-02T11:36:53.097Z,26.80
2018-06-02T11:39:20.617Z,26.80
2018-06-02T11:41:49.588Z,25.90
2018-06-02T11:44:17.128Z,25.90
2018-06-02T11:46:44.613Z,26.20
2018-06-02T11:49:12.128Z,26.40
2018-06-02T11:51:39.608Z,26.80
2018-06-02T11:54:07.493Z,27.00
2018-06-02T11:56:35.752Z,26.40
2018-06-02T11:59:03.241Z,26.40
2018-06-02T12:01:31.011Z,26.40
2018-06-02T12:03:58.917Z,26.60
2018-06-02T12:06:26.451Z,27.00
2018-06-02T12:08:53.959Z,26.80
2018-06-02T12:11:21.577Z,26.70
2018-06-02T12:13:49.850Z,26.70
2018-06-02T12:16:17.401Z,26.60
2018-06-02T12:18:45.060Z,26.70
2018-06-02T12:21:13.588Z,26.80
2018-06-02T12:23:41.128Z,26.80
2018-06-02T12:26:08.604Z,26.60
2018-06-02T12:28:37.136Z,26.80
2018-06-02T12:31:04.609Z,26.80
2018-06-02T12:33:32.573Z,26.70
2018-06-02T12:36:00.824Z,26.80
2018-06-02T12:38:28.355Z,26.70
2018-06-02T12:40:56.156Z,27.20
2018-06-02T12:43:24.572Z,26.80
2018-06-02T12:45:52.525Z,26.80
2018-06-02T12:48:20.484Z,27.30
2018-06-02T12:50:47.987Z,26.90
2018-06-02T12:53:15.466Z,26.90
2018-06-02T12:55:42.993Z,27.00
2018-06-02T12:58:11.044Z,26.60
2018-06-02T13:00:38.526Z,26.70
2018-06-02T13:03:06.029Z,26.50
2018-06-02T13:05:33.711Z,26.50
2018-06-02T13:08:01.285Z,26.40
2018-06-02T13:10:28.924Z,26.30
2018-06-02T13:12:57.055Z,26.50
2018-06-02T13:15:24.724Z,26.50
2018-06-02T13:17:52.223Z,26.50
2018-06-02T13:20:19.702Z,26.50
2018-06-02T13:22:47.200Z,26.30
2018-06-02T13:25:14.695Z,25.80
2018-06-02T13:27:43.076Z,26.10
2018-06-02T13:30:11.050Z,26.10
2018-06-02T13:32:38.921Z,26.10
2018-06-02T13:35:06.426Z,26.40
2018-06-02T13:37:33.928Z,26.60
2018-06-02T13:40:02.421Z,26.70
2018-06-02T13:42:29.912Z,26.70
2018-06-02T13:44:57.420Z,27.10
2018-06-02T13:47:25.519Z,27.00
2018-06-02T13:49:53.016Z,26.70
2018-06-02T13:52:20.520Z,27.10
2018-06-02T13:54:48.071Z,27.00
2018-06-02T13:57:16.471Z,27.10
2018-06-02T13:59:43.965Z,27.10
2018-06-02T14:02:11.721Z,27.10
2018-06-02T14:04:39.978Z,26.90
2018-06-02T14:07:07.609Z,26.80
2018-06-02T14:09:35.891Z,26.80
2018-06-02T14:12:03.392Z,26.80
2018-06-02T14:14:30.997Z,27.00
2018-06-02T14:16:58.819Z,27.00
2018-06-02T14:19:26.633Z,26.70
2018-06-02T14:21:54.115Z,26.30
2018-06-02T14:24:21.672Z,26.40
2018-06-02T14:26:49.180Z,26.50
2018-06-02T14:29:17.459Z,26.00
2018-06-02T14:31:46.397Z,26.10
2018-06-02T14:34:13.917Z,26.10
2018-06-02T14:36:41.596Z,26.00
2018-06-02T14:39:10.390Z,26.00
2018-06-02T14:41:37.886Z,26.00
2018-06-02T14:44:05.514Z,25.70
2018-06-02T14:46:32.996Z,25.20
2018-06-02T14:49:00.719Z,24.80
2018-06-02T14:51:29.310Z,24.30
2018-06-02T14:53:58.014Z,24.20
2018-06-02T14:56:25.529Z,24.20
2018-06-02T14:58:53.031Z,24.40
2018-06-02T15:01:20.741Z,24.40
2018-06-02T15:03:48.281Z,24.60
2018-06-02T15:06:16.416Z,24.50
2018-06-02T15:08:43.913Z,24.50
2018-06-02T15:11:11.771Z,24.30
2018-06-02T15:13:40.280Z,24.20
2018-06-02T15:16:08.142Z,23.90
2018-06-02T15:18:35.644Z,23.70
2018-06-02T15:21:03.171Z,23.50
2018-06-02T15:23:31.061Z,23.60
2018-06-02T15:25:59.637Z,24.00
2018-06-02T15:28:27.408Z,24.20
2018-06-02T15:30:54.917Z,24.00
2018-06-02T15:33:22.455Z,23.70
2018-06-02T15:35:49.928Z,23.70
2018-06-02T15:38:17.839Z,23.80
2018-06-02T15:40:45.418Z,23.90
2018-06-02T15:43:13.054Z,24.00
2018-06-02T15:45:40.932Z,24.00
2018-06-02T15:48:08.450Z,23.90
2018-06-02T15:50:35.972Z,23.90
2018-06-02T15:53:04.362Z,23.90
2018-06-02T15:55:31.912Z,23.60
2018-06-02T15:57:59.408Z,23.50
2018-06-02T16:00:26.895Z,23.40
2018-06-02T16:02:54.392Z,23.50
2018-06-02T16:05:21.885Z,23.70
2018-06-02T16:07:49.392Z,23.80
2018-06-02T16:10:16.877Z,23.90
2018-06-02T16:12:44.365Z,24.00
2018-06-02T16:15:12.257Z,23.80
2018-06-02T16:17:40.466Z,23.70
2018-06-02T16:20:07.992Z,23.50
2018-06-02T16:22:35.485Z,23.50
2018-06-02T16:25:02.998Z,23.60
2018-06-02T16:27:30.543Z,23.80
2018-06-02T16:29:58.054Z,23.70
2018-06-02T16:32:25.584Z,23.70
2018-06-02T16:34:53.099Z,23.80
2018-06-02T16:37:21.101Z,23.90
2018-06-02T16:39:48.797Z,24.00
2018-06-02T16:42:16.302Z,24.00
2018-06-02T16:44:43.971Z,24.10
2018-06-02T16:47:12.472Z,24.20
2018-06-02T16:49:39.948Z,24.10
2018-06-02T16:52:07.459Z,24.00
2018-06-02T16:54:36.459Z,24.00
2018-06-02T16:57:03.972Z,23.90
2018-06-02T16:59:31.791Z,23.90
2018-06-02T17:02:00.409Z,23.90
2018-06-02T17:04:27.909Z,23.80
2018-06-02T17:06:55.400Z,23.70
2018-06-02T17:09:23.675Z,23.30
2018-06-02T17:11:51.932Z,23.20
2018-06-02T17:14:21.073Z,23.10
2018-06-02T17:16:48.842Z,23.10
2018-06-02T17:19:16.341Z,23.00
2018-06-02T17:21:45.172Z,23.00
2018-06-02T17:24:13.103Z,23.00
2018-06-02T17:26:40.615Z,23.10
2018-06-02T17:29:08.325Z,23.20
2018-06-02T17:31:36.133Z,23.20
2018-06-02T17:34:03.662Z,23.20
2018-06-02T17:36:31.946Z,23.30
2018-06-02T17:39:00.205Z,23.40
2018-06-02T17:41:28.223Z,23.40
2018-06-02T17:43:55.884Z,23.50
2018-06-02T17:46:23.382Z,23.30
2018-06-02T17:48:51.596Z,23.20
2018-06-02T17:51:19.089Z,23.20
2018-06-02T17:53:46.582Z,23.20
2018-06-02T17:56:14.573Z,23.10
2018-06-02T17:58:42.063Z,23.00
2018-06-02T18:01:09.700Z,23.00
2018-06-02T18:03:37.359Z,22.80
2018-06-02T18:06:04.869Z,22.80
2018-06-02T18:08:32.421Z,22.80
2018-06-02T18:10:59.886Z,22.60
2018-06-02T18:13:27.936Z,22.50
2018-06-02T18:15:55.432Z,22.50
2018-06-02T18:18:22.941Z,22.40
2018-06-02T18:20:50.450Z,22.30
2018-06-02T18:23:17.981Z,22.20
2018-06-02T18:25:45.621Z,22.30
2018-06-02T18:28:13.182Z,22.10
2018-06-02T18:30:41.391Z,22.00
2018-06-02T18:33:08.918Z,21.90
2018-06-02T18:35:36.407Z,21.80
2018-06-02T18:38:04.545Z,21.70
2018-06-02T18:40:32.170Z,21.60
2018-06-02T18:42:59.685Z,21.50
2018-06-02T18:45:27.179Z,21.40
2018-06-02T18:47:54.691Z,21.30
2018-06-02T18:50:22.192Z,21.30
2018-06-02T18:52:50.074Z,21.20
2018-06-02T18:55:17.774Z,21.10
2018-06-02T18:57:45.281Z,21.00
2018-06-02T19:00:13.185Z,20.90
2018-06-02T19:02:40.664Z,20.80
2018-06-02T19:05:08.166Z,20.70
2018-06-02T19:07:36.251Z,20.70
2018-06-02T19:10:03.771Z,20.60
2018-06-02T19:12:31.271Z,20.60
2018-06-02T19:14:58.750Z,20.50
2018-06-02T19:17:26.537Z,20.40
2018-06-02T19:19:54.046Z,20.30
2018-06-02T19:22:22.306Z,20.20
2018-06-02T19:24:50.719Z,20.20
2018-06-02T19:27:18.501Z,20.20
2018-06-02T19:29:46.007Z,20.20
2018-06-02T19:32:14.284Z,20.10
2018-06-02T19:34:42.917Z,20.00
2018-06-02T19:37:10.419Z,20.00
2018-06-02T19:39:38.516Z,19.90
2018-06-02T19:42:06.093Z,19.90
2018-06-02T19:44:33.601Z,19.80
2018-06-02T19:47:01.111Z,19.70
2018-06-02T19:49:28.805Z,19.60
2018-06-02T19:51:56.312Z,19.60
2018-06-02T19:54:24.312Z,19.50
2018-06-02T19:56:51.800Z,19.40
2018-06-02T19:59:19.319Z,19.40
2018-06-02T20:01:46.823Z,19.30
2018-06-02T20:04:14.305Z,19.20
2018-06-02T20:06:42.071Z,19.20
2018-06-02T20:09:09.573Z,19.10
2018-06-02T20:11:37.609Z,19.10
2018-06-02T20:14:05.158Z,19.00
2018-06-02T20:16:32.648Z,18.90
2018-06-02T20:19:00.397Z,18.90
2018-06-02T20:21:27.893Z,18.90
2018-06-02T20:23:55.421Z,18.80
2018-06-02T20:26:23.125Z,18.80
2018-06-02T20:28:50.745Z,18.70
2018-06-02T20:31:18.260Z,18.60
2018-06-02T20:33:45.763Z,18.60
2018-06-02T20:36:13.298Z,18.50
2018-06-02T20:38:41.071Z,18.40
2018-06-02T20:41:08.954Z,18.50
2018-06-02T20:43:36.460Z,18.30
2018-06-02T20:46:04.171Z,18.30
2018-06-02T20:48:31.664Z,18.30
2018-06-02T20:50:59.163Z,18.20
2018-06-02T20:53:26.679Z,18.20
2018-06-02T20:55:54.712Z,18.10
2018-06-02T20:58:22.213Z,18.10
2018-06-02T21:00:49.715Z,18.00
2018-06-02T21:03:17.207Z,18.00
2018-06-02T21:05:44.746Z,17.90
2018-06-02T21:08:12.241Z,17.90
2018-06-02T21:10:40.376Z,17.80
2018-06-02T21:13:07.876Z,17.80
2018-06-02T21:15:36.156Z,17.70
2018-06-02T21:18:03.948Z,17.70
2018-06-02T21:20:31.826Z,17.70
2018-06-02T21:22:59.629Z,17.70
2018-06-02T21:25:27.143Z,17.60
2018-06-02T21:27:54.657Z,17.70
2018-06-02T21:30:22.494Z,17.60
2018-06-02T21:32:50.746Z,17.60
2018-06-02T21:35:18.260Z,17.60
2018-06-02T21:37:46.061Z,17.60
2018-06-02T21:40:14.334Z,17.50
2018-06-02T21:42:42.424Z,17.40
2018-06-02T21:45:10.112Z,17.40
2018-06-02T21:47:37.607Z,17.40
2018-06-02T21:50:05.133Z,17.40
2018-06-02T21:52:32.617Z,17.30
2018-06-02T21:55:00.536Z,17.30
